Aérodrome :
LOGIN :

S'inscrire | Disclaimer

   EN    FR    IT 

 










Légende :    VFR   VFR Marginal   IFR   IFR Intensif   IFR Très Intensif
Visi : 
Plafond : 
>= 8 km
>= 3000ft
5 à 8 km
1000 à 3000 ft
1500m à 5 km
500 à 1000 ft
800 à 1500m
200 à 500 ft
< 800m
< 200 ft
Symboles :   Orages  Brouillard  Fortes neiges  Fortes précipitations  Vent > 20 kt
SIGMETs :   Divers  Orages  Givrage  Turbulence  Onde Orograph.  Cendres Volcan.







- Altitude de l'aérodrome : 265 ft


ETSH - Holzdorf AB

DERNIER METAR :
  • 131820Z 18013KT 9999 -SNRA BKN032 03/M01 Q1000 BLU

METARs EXPIRÉS :
  • 131720Z 16011KT 9999 SCT028 BKN043 03/M03 Q1001 BLU
  • 131620Z 17010KT 9999 SCT110 BKN140 03/M03 Q1003 BLU
  • 131600Z 16011KT 9999 FEW100 BKN140 BKN220 04/M04 Q1003 BLU FCST CANCEL

TAF AMD TAF ETSH
Valide du 13 à 15h jusqu'au 14 à 00h UTC


131526Z 1315/1324 18010KT 9999 NSW FEW040 BKN230
BECMG 1315/1317 20012KT 9999 NSW SCT040 BKN100
TEMPO 1317/1324 21012KT 5000 -SNRA SCT020 BKN040 CANCEL 1600
Pas de NOTAMs connus pour ce terrain.



MET'MAP, la Météo Aéronautique d'un coup d'oeil ! - Copyright ORBIFLY Décembre 2007 - Disclaimer

ORBIFLY MET'MAP TEAM :

Programmation & Développement : Alexandra Zaïnal
Conception & Développement : Baudouin d'Aumeries
Co-Programmation & Développement : Marc-Olivier Méhu
Soutien technique & logistique : Manuel Goepfert

Contact : metmap@orbifly.com




SOURCES & CREDITS :

   NOAA